World Is Not Enough — 9HZH8 — position and weather

sailwx.info

Track history (hours):
 
Tides and Currents Weather Stations Pressure Air Temp Water Temp Dewpoint Dewpoint Depression Visibility Wind Speed Wind Dir Waves Ship Positions

World Is Not Enough

Last reported at 2015-Oct-05 12:33 UTC. Time now 2016-May-01 02:21 UTC.
Position N 43°32' E 007°01'.
Warning: this ship's position is months out of date.

Length 17 m; draft 1.7 m.

Type: Pleasure craft. MMSI: 256636000.

Date/timePositionNaut miles runAvg speedWind from/ knotsBaromVisibWave heightAir tempDewpointWater temp
2015-Oct-05 12:33N 43°32' E 007°01'1010.5
2015-Oct-05 11:33N 43°28' E 007°15'13512.1
2015-Oct-05 00:23N 42°41' E 010°08'1211.8
2015-Oct-04 23:25N 42°34' E 010°21'17012.2
2015-Oct-04 09:29N 40°60' E 013°32'1212.1
2015-Oct-04 08:30N 40°54' E 013°45'1111.9
2015-Oct-04 07:33N 40°48' E 013°58'1111.0
2015-Oct-04 06:33N 40°48' E 014°13'5 0.1
2015-Oct-02 19:22N 40°44' E 014°18'8 9.3
2015-Oct-02 18:33N 40°37' E 014°18'112 8.6
2015-Oct-02 05:33N 38°53' E 015°13'1111.4
2015-Oct-02 04:33N 38°44' E 015°22'1211.2
2015-Oct-02 03:32N 38°35' E 015°31'1111.7
2015-Oct-02 02:33N 38°25' E 015°38'1010.4
2015-Oct-02 01:34N 38°15' E 015°40'1111.3
2015-Oct-02 00:33N 38°04' E 015°36'1111.1
2015-Oct-01 23:33N 37°54' E 015°43'  
2015-Sep-27 09:31N 37°44' E 023°15'1110.8
2015-Sep-27 08:28N 37°39' E 023°28'1111.8
2015-Sep-27 07:33N 37°39' E 023°42'  
Track history (hours):
 
Tides and Currents Weather Stations Pressure Air Temp Water Temp Dewpoint Dewpoint Depression Visibility Wind Speed Wind Dir Waves Ship Positions

World Is Not Enough

Last reported at 2015-Oct-05 12:33 UTC. Time now 2016-May-01 02:21 UTC.
Position N 43°32' E 007°01'.
Warning: this ship's position is months out of date.

Length 17 m; draft 1.7 m.

Type: Pleasure craft. MMSI: 256636000.

Date/timePositionNaut miles runAvg speedWind from/ knotsBaromVisibWave heightAir tempDewpointWater temp
2015-Oct-05 12:33N 43°32' E 007°01'1010.5
2015-Oct-05 11:33N 43°28' E 007°15'13512.1
2015-Oct-05 00:23N 42°41' E 010°08'1211.8
2015-Oct-04 23:25N 42°34' E 010°21'17012.2
2015-Oct-04 09:29N 40°60' E 013°32'1212.1
2015-Oct-04 08:30N 40°54' E 013°45'1111.9
2015-Oct-04 07:33N 40°48' E 013°58'1111.0
2015-Oct-04 06:33N 40°48' E 014°13'5 0.1
2015-Oct-02 19:22N 40°44' E 014°18'8 9.3
2015-Oct-02 18:33N 40°37' E 014°18'112 8.6
2015-Oct-02 05:33N 38°53' E 015°13'1111.4
2015-Oct-02 04:33N 38°44' E 015°22'1211.2
2015-Oct-02 03:32N 38°35' E 015°31'1111.7
2015-Oct-02 02:33N 38°25' E 015°38'1010.4
2015-Oct-02 01:34N 38°15' E 015°40'1111.3
2015-Oct-02 00:33N 38°04' E 015°36'1111.1
2015-Oct-01 23:33N 37°54' E 015°43'  
2015-Sep-27 09:31N 37°44' E 023°15'1110.8
2015-Sep-27 08:28N 37°39' E 023°28'1111.8
2015-Sep-27 07:33N 37°39' E 023°42'  

Dump ship's entire track history